Time;durP1;ratioP1;P1;durP2;ratioP2;P2;SDS_P1;SDS_P2;PMS_P1;PMS_P2;Temp;Humidity;BMP_temperature;BMP_pressure;BME280_temperature;BME280_humidity;BME280_pressure;Samples;Min_cycle;Max_cycle;Signal;HPM_P1;HPM_P2
2022/07/05 00:01:16;;;;;;;2.30;1.20;;;;;;;16.80;50.09;101241.03;7396015;19;20023;-66
2022/07/05 00:03:45;;;;;;;1.52;1.38;;;;;;;16.75;50.20;101243.88;7395644;19;20022;-68
2022/07/05 00:06:13;;;;;;;1.75;1.27;;;;;;;16.72;50.12;101257.22;7393421;19;20007;-69
2022/07/05 00:08:42;;;;;;;1.70;1.17;;;;;;;16.67;50.27;101254.78;7395424;19;20506;-68
2022/07/05 00:11:13;;;;;;;2.40;0.98;;;;;;;16.64;50.64;101254.88;7395669;19;20115;-68
2022/07/05 00:13:42;;;;;;;1.65;1.20;;;;;;;16.60;50.42;101258.56;7395094;19;20014;-68
2022/07/05 00:16:10;;;;;;;2.20;1.45;;;;;;;16.57;50.94;101261.34;7394986;19;20011;-69
2022/07/05 00:18:39;;;;;;;2.53;1.20;;;;;;;16.53;51.01;101263.25;7395505;19;20022;-68
2022/07/05 00:21:07;;;;;;;2.00;1.42;;;;;;;16.49;50.88;101259.00;7395041;19;20014;-68
2022/07/05 00:23:36;;;;;;;2.17;1.30;;;;;;;16.44;51.20;101260.94;7395334;19;20070;-68
2022/07/05 00:26:05;;;;;;;1.65;1.40;;;;;;;16.40;51.29;101256.69;7393220;19;20502;-68
2022/07/05 00:28:36;;;;;;;1.23;1.13;;;;;;;16.35;51.15;101254.22;7393471;19;20027;-68
2022/07/05 00:31:04;;;;;;;3.10;1.48;;;;;;;16.31;51.52;101265.84;7394004;19;20074;-68
2022/07/05 00:33:33;;;;;;;2.58;1.35;;;;;;;16.26;51.40;101259.84;7394828;19;20383;-68
2022/07/05 00:36:01;;;;;;;1.95;1.30;;;;;;;16.23;51.65;101266.13;7393288;19;20085;-68
2022/07/05 00:38:30;;;;;;;2.45;1.60;;;;;;;16.18;51.91;101261.94;7393195;19;20022;-68
2022/07/05 00:40:58;;;;;;;3.03;1.63;;;;;;;16.15;52.04;101264.69;7393118;19;20078;-68
2022/07/05 00:43:27;;;;;;;1.92;1.23;;;;;;;16.11;51.94;101262.16;7393180;19;20074;-68
2022/07/05 00:45:58;;;;;;;2.10;1.25;;;;;;;16.08;51.97;101270.19;7395279;19;20086;-68
2022/07/05 00:48:26;;;;;;;2.33;1.90;;;;;;;16.05;52.45;101267.69;7392545;19;20368;-68
2022/07/05 00:50:55;;;;;;;2.60;1.30;;;;;;;16.01;52.40;101266.06;7394126;19;20018;-68
2022/07/05 00:53:24;;;;;;;2.33;1.80;;;;;;;15.99;52.63;101270.53;7394003;19;20015;-67
2022/07/05 00:55:52;;;;;;;2.47;1.65;;;;;;;15.96;52.73;101275.94;7392333;19;20031;-68
2022/07/05 00:58:21;;;;;;;2.47;1.73;;;;;;;15.93;52.80;101270.75;7392245;19;20031;-68
2022/07/05 01:00:49;;;;;;;1.98;1.45;;;;;;;15.88;52.64;101270.91;7392422;19;20023;-68
2022/07/05 01:03:20;;;;;;;2.88;1.45;;;;;;;15.84;53.07;101273.75;7392440;19;20018;-68
2022/07/05 01:05:49;;;;;;;4.30;2.25;;;;;;;15.80;53.05;101270.31;7392270;19;20015;-68
2022/07/05 01:08:18;;;;;;;2.08;1.60;;;;;;;15.76;53.24;101268.69;7392038;19;20406;-68
2022/07/05 01:10:47;;;;;;;1.60;1.40;;;;;;;15.71;53.42;101270.59;7393768;19;20018;-68
2022/07/05 01:13:16;;;;;;;3.03;2.03;;;;;;;15.69;53.54;101269.81;7394469;19;20086;-68
2022/07/05 01:15:45;;;;;;;4.20;2.30;;;;;;;15.65;53.33;101266.41;7392448;19;20078;-68
2022/07/05 01:18:14;;;;;;;1.80;1.35;;;;;;;15.62;53.62;101266.53;7398773;19;20362;-68
2022/07/05 01:20:46;;;;;;;2.10;1.75;;;;;;;15.59;53.69;101266.63;7398571;19;20028;-68
2022/07/05 01:23:17;;;;;;;2.33;1.40;;;;;;;15.55;53.80;101271.13;7400963;19;20019;-68
2022/07/05 01:25:48;;;;;;;1.52;1.30;;;;;;;15.53;53.75;101264.19;7398201;19;20506;-68
2022/07/05 01:28:18;;;;;;;3.28;1.48;;;;;;;15.50;53.74;101277.53;7398364;19;20503;-66
2022/07/05 01:30:47;;;;;;;1.50;1.40;;;;;;;15.45;53.81;101270.59;7398250;19;20419;-66
2022/07/05 01:33:16;;;;;;;2.13;1.50;;;;;;;15.44;53.99;101270.63;7400987;19;20018;-67
2022/07/05 01:35:44;;;;;;;1.60;1.50;;;;;;;15.40;54.30;101269.88;7397806;19;20031;-66
2022/07/05 01:38:17;;;;;;;2.00;1.50;;;;;;;15.38;54.34;101270.84;7398470;19;20036;-67
2022/07/05 01:40:45;;;;;;;1.83;1.50;;;;;;;15.37;54.31;101274.44;7400337;19;20017;-67
2022/07/05 01:43:15;;;;;;;4.40;2.08;;;;;;;15.33;54.11;101265.72;7400266;19;20549;-67
2022/07/05 01:45:43;;;;;;;3.22;1.52;;;;;;;15.32;54.13;101269.28;7400172;19;20418;-67
2022/07/05 01:48:14;;;;;;;3.10;1.65;;;;;;;15.30;54.27;101268.47;7397387;19;20019;-67
2022/07/05 01:50:47;;;;;;;3.22;1.50;;;;;;;15.28;54.16;101270.31;7398195;19;20104;-67
2022/07/05 01:53:21;;;;;;;2.20;1.55;;;;;;;15.24;54.11;101268.66;7398378;19;20074;-67
2022/07/05 01:55:49;;;;;;;2.22;1.10;;;;;;;15.22;53.64;101270.50;7398683;19;20027;-67
2022/07/05 01:58:18;;;;;;;2.28;1.77;;;;;;;15.17;53.97;101264.50;7397555;19;20036;-67
2022/07/05 02:00:48;;;;;;;1.95;1.48;;;;;;;15.15;53.81;101261.91;7397584;19;20031;-67
2022/07/05 02:03:18;;;;;;;1.85;1.60;;;;;;;15.11;53.79;101266.44;7399971;19;20010;-67
2022/07/05 02:05:48;;;;;;;1.90;1.30;;;;;;;15.08;53.65;101255.94;7397308;19;20006;-67
2022/07/05 02:08:20;;;;;;;1.55;1.45;;;;;;;15.06;53.94;101265.69;7397383;19;20017;-67
2022/07/05 02:10:49;;;;;;;4.30;1.60;;;;;;;15.04;53.76;101258.72;7400030;19;20035;-67
2022/07/05 02:13:18;;;;;;;2.17;1.38;;;;;;;15.02;54.08;101263.22;7400342;19;20022;-67
2022/07/05 02:15:46;;;;;;;2.80;1.55;;;;;;;14.99;54.05;101257.13;7396524;19;20365;-67
2022/07/05 02:18:15;;;;;;;1.42;1.30;;;;;;;14.99;53.89;101264.19;7396738;19;20027;-67
2022/07/05 02:20:44;;;;;;;1.67;1.52;;;;;;;14.96;53.90;101264.28;7399243;19;20015;-67
2022/07/05 02:23:12;;;;;;;2.00;1.80;;;;;;;14.92;53.85;101257.38;7399274;19;20411;-68
2022/07/05 02:25:43;;;;;;;2.15;1.60;;;;;;;14.91;54.28;101258.28;7396770;19;20110;-66
2022/07/05 02:28:13;;;;;;;2.53;1.40;;;;;;;14.89;54.25;101254.84;7395139;19;20070;-67
2022/07/05 02:30:42;;;;;;;1.63;1.50;;;;;;;14.86;54.40;101261.06;7398816;19;20021;-67
2022/07/05 02:33:10;;;;;;;2.30;1.50;;;;;;;14.83;54.46;101259.38;7396680;19;20014;-68
2022/07/05 02:35:39;;;;;;;1.95;1.75;;;;;;;14.79;54.39;101255.09;7398446;19;20041;-67
2022/07/05 02:38:07;;;;;;;1.80;1.50;;;;;;;14.73;54.37;101263.22;7397335;19;20393;-68
2022/07/05 02:40:36;;;;;;;3.45;2.05;;;;;;;14.68;54.65;101269.56;7396551;19;20018;-67
2022/07/05 02:43:07;;;;;;;3.72;1.98;;;;;;;14.61;54.83;101269.72;7397877;19;20010;-67
2022/07/05 02:45:35;;;;;;;2.83;1.73;;;;;;;14.53;54.75;101268.22;7397533;19;20030;-65
2022/07/05 02:48:04;;;;;;;2.92;1.60;;;;;;;14.44;55.07;101259.63;7396743;19;20078;-67
2022/07/05 02:50:32;;;;;;;3.63;1.70;;;;;;;14.44;55.31;101269.34;7396161;19;20074;-68
2022/07/05 02:53:01;;;;;;;2.65;1.67;;;;;;;14.40;55.56;101265.94;7398387;19;20320;-67
2022/07/05 02:55:29;;;;;;;1.75;1.65;;;;;;;14.37;55.38;101263.38;7396069;19;20022;-67
2022/07/05 02:57:58;;;;;;;5.05;1.70;;;;;;;14.36;55.75;101264.28;7396476;19;20031;-67
2022/07/05 03:00:29;;;;;;;1.88;1.60;;;;;;;14.37;55.92;101270.44;7397544;19;20085;-67
2022/07/05 03:02:57;;;;;;;2.85;1.50;;;;;;;14.34;55.95;101279.31;7397093;19;20027;-67
2022/07/05 03:05:26;;;;;;;2.53;1.67;;;;;;;14.31;56.03;101289.97;7396367;19;20010;-67
2022/07/05 03:07:54;;;;;;;2.78;1.65;;;;;;;14.25;56.23;101293.63;7396201;19;20039;-67
2022/07/05 03:10:25;;;;;;;4.50;1.95;;;;;;;14.18;56.64;101290.31;7397435;19;20417;-67
2022/07/05 03:12:53;;;;;;;3.25;1.75;;;;;;;14.12;56.33;101294.91;7396163;19;20022;-68
2022/07/05 03:15:22;;;;;;;2.35;1.67;;;;;;;14.08;56.78;101298.50;7395512;19;20018;-67
2022/07/05 03:17:53;;;;;;;3.88;1.60;;;;;;;14.05;56.97;101296.81;7396678;19;20011;-69
2022/07/05 03:20:22;;;;;;;2.45;1.70;;;;;;;14.03;57.12;101306.56;7398718;19;20047;-67
2022/07/05 03:22:50;;;;;;;2.72;2.10;;;;;;;14.00;57.15;101301.34;7395494;19;20039;-68
2022/07/05 03:25:19;;;;;;;2.17;1.60;;;;;;;13.95;57.34;101312.06;7396931;19;20031;-67
2022/07/05 03:27:48;;;;;;;2.80;2.45;;;;;;;13.91;57.62;101302.47;7394599;19;20031;-67
2022/07/05 03:30:17;;;;;;;4.55;2.20;;;;;;;13.88;57.94;101309.63;7394681;19;20028;-67
2022/07/05 03:32:45;;;;;;;2.20;1.92;;;;;;;13.84;58.31;101311.47;7396471;19;20023;-67
2022/07/05 03:35:16;;;;;;;4.00;2.50;;;;;;;13.82;58.43;101310.63;7395638;19;20077;-66
2022/07/05 03:37:45;;;;;;;2.08;1.88;;;;;;;13.81;58.38;101311.53;7394106;19;20384;-66
2022/07/05 03:40:13;;;;;;;3.58;2.33;;;;;;;13.80;58.57;101315.97;7392916;19;20078;-69
2022/07/05 03:42:42;;;;;;;3.25;2.10;;;;;;;13.81;59.06;101315.06;7394601;19;20015;-67
2022/07/05 03:45:12;;;;;;;4.22;2.25;;;;;;;13.79;59.29;101322.13;7396601;19;20018;-67
2022/07/05 03:47:41;;;;;;;2.30;2.10;;;;;;;13.80;59.37;101315.06;7395378;19;20025;-67
2022/07/05 03:50:10;;;;;;;6.28;2.05;;;;;;;13.80;59.66;101326.50;7395963;19;20071;-67
2022/07/05 03:52:41;;;;;;;2.92;1.95;;;;;;;13.79;59.94;101337.09;7395890;19;20094;-67
2022/07/05 03:55:10;;;;;;;3.65;1.90;;;;;;;13.79;59.87;101322.13;7394245;19;20023;-68
2022/07/05 03:57:39;;;;;;;2.90;1.73;;;;;;;13.81;59.78;101325.59;7394566;19;20014;-67
2022/07/05 04:00:09;;;;;;;3.35;2.45;;;;;;;13.82;59.94;101327.31;7393854;19;20026;-67
2022/07/05 04:02:38;;;;;;;3.03;2.60;;;;;;;13.83;60.14;101321.13;7393547;19;20018;-68
2022/07/05 04:05:07;;;;;;;2.47;2.28;;;;;;;13.84;60.20;101330.78;7394635;19;20010;-68
2022/07/05 04:07:36;;;;;;;2.65;2.40;;;;;;;13.86;60.31;101333.38;7393918;19;20018;-68
2022/07/05 04:10:15;;;;;;;4.20;2.25;;;;;;;13.89;60.83;101329.78;7395113;19;20035;-68
2022/07/05 04:12:43;;;;;;;4.13;2.35;;;;;;;13.91;60.82;101339.41;7394832;19;20027;-68
2022/07/05 04:15:12;;;;;;;4.18;2.53;;;;;;;13.94;61.19;101349.00;7394661;19;20423;-68
2022/07/05 04:17:49;;;;;;;4.05;2.33;;;;;;;13.96;62.40;101344.56;7394402;19;20035;-68
2022/07/05 04:20:18;;;;;;;5.35;2.28;;;;;;;13.97;61.62;101349.78;7394808;19;20532;-68
2022/07/05 04:22:46;;;;;;;3.25;2.15;;;;;;;14.00;61.89;101354.13;7395558;19;20039;-69
2022/07/05 04:25:21;;;;;;;5.15;2.45;;;;;;;14.04;62.11;101353.16;7394908;19;20082;-68
2022/07/05 04:27:57;;;;;;;4.40;2.53;;;;;;;14.07;62.66;101358.34;7393262;19;20019;-68
2022/07/05 04:30:27;;;;;;;3.58;2.45;;;;;;;14.13;62.34;101365.25;7394159;19;20018;-68
2022/07/05 04:32:55;;;;;;;3.53;2.60;;;;;;;14.18;62.69;101369.47;7393962;19;20039;-67
2022/07/05 04:35:24;;;;;;;3.75;2.33;;;;;;;14.23;62.88;101365.81;7392101;19;20427;-67
2022/07/05 04:37:53;;;;;;;3.05;2.45;;;;;;;14.27;63.02;101364.88;7392647;19;20070;-68
2022/07/05 04:40:24;;;;;;;4.55;3.05;;;;;;;14.32;63.70;101369.09;7391592;19;20505;-67
2022/07/05 04:42:52;;;;;;;4.82;2.72;;;;;;;14.37;63.82;101362.81;7394391;19;20103;-67
2022/07/05 04:45:21;;;;;;;4.63;2.35;;;;;;;14.43;63.91;101373.19;7392218;19;20019;-67
2022/07/05 04:47:49;;;;;;;3.08;2.17;;;;;;;14.49;63.74;101371.28;7392951;19;20018;-67
2022/07/05 04:50:18;;;;;;;3.42;2.53;;;;;;;14.57;63.96;101378.09;7393659;19;20031;-67
2022/07/05 04:52:46;;;;;;;3.95;2.53;;;;;;;14.61;64.33;101372.69;7397186;19;20501;-66
2022/07/05 04:55:15;;;;;;;5.20;2.40;;;;;;;14.66;64.80;101380.53;7400718;19;20352;-66
2022/07/05 04:57:46;;;;;;;6.88;2.42;;;;;;;14.68;64.80;101383.13;7397708;19;20410;-67
2022/07/05 05:00:16;;;;;;;5.38;2.45;;;;;;;14.72;65.25;101385.63;7399490;19;20010;-67
2022/07/05 05:02:45;;;;;;;5.07;2.30;;;;;;;14.77;65.20;101378.44;7397548;19;20050;-67
2022/07/05 05:05:13;;;;;;;3.47;2.40;;;;;;;14.83;65.17;101380.88;7398830;19;20027;-66
2022/07/05 05:07:44;;;;;;;4.20;2.22;;;;;;;14.91;65.67;101390.38;7397177;19;20019;-66
2022/07/05 05:10:13;;;;;;;9.27;2.70;;;;;;;14.96;65.29;101377.88;7397088;19;20375;-67
2022/07/05 05:12:42;;;;;;;4.38;2.50;;;;;;;15.01;65.27;101381.25;7400584;19;20355;-67
2022/07/05 05:15:13;;;;;;;3.75;2.45;;;;;;;15.06;65.27;101378.47;7400394;19;20338;-67
2022/07/05 05:17:43;;;;;;;5.10;2.63;;;;;;;15.14;65.10;101381.75;7397927;19;20025;-67
2022/07/05 05:20:15;;;;;;;6.40;2.33;;;;;;;15.23;64.80;101383.25;7399731;19;20018;-68
2022/07/05 05:22:43;;;;;;;5.95;2.72;;;;;;;15.31;64.82;101389.16;7396972;19;20501;-67
2022/07/05 05:25:13;;;;;;;6.80;2.35;;;;;;;15.40;64.77;101388.84;7397843;19;20023;-67
2022/07/05 05:27:46;;;;;;;5.43;2.00;;;;;;;15.48;65.22;101396.56;7397640;19;20022;-68
2022/07/05 05:30:18;;;;;;;6.45;2.50;;;;;;;15.55;65.40;101397.22;7399211;19;20031;-68
2022/07/05 05:32:47;;;;;;;2.97;1.60;;;;;;;15.63;64.62;101408.41;7400181;19;20435;-67
2022/07/05 05:35:20;;;;;;;2.60;1.50;;;;;;;15.71;64.43;101400.22;7396575;19;20028;-68
2022/07/05 05:37:51;;;;;;;4.23;1.93;;;;;;;15.77;64.19;101398.25;7397936;19;20023;-67
2022/07/05 05:40:20;;;;;;;2.25;1.55;;;;;;;15.86;64.16;101413.00;7399787;19;20465;-68
2022/07/05 05:42:48;;;;;;;5.38;3.17;;;;;;;15.94;64.00;101413.59;7395558;19;20383;-68
2022/07/05 05:45:20;;;;;;;3.03;1.48;;;;;;;16.04;63.74;101415.94;7399541;19;20019;-68
2022/07/05 05:47:50;;;;;;;4.55;1.75;;;;;;;16.13;63.45;101416.47;7396742;19;20459;-67
2022/07/05 05:50:23;;;;;;;3.53;1.35;;;;;;;16.20;63.07;101417.16;7398345;19;20023;-67
2022/07/05 05:52:52;;;;;;;4.03;1.50;;;;;;;16.28;62.76;101419.53;7395935;19;20035;-67
2022/07/05 05:55:21;;;;;;;3.10;1.27;;;;;;;16.36;62.03;101419.25;7395738;19;20015;-67
2022/07/05 05:57:50;;;;;;;5.45;1.88;;;;;;;16.43;61.63;101413.69;7395023;19;20529;-67
2022/07/05 06:00:23;;;;;;;4.78;1.50;;;;;;;16.52;61.36;101423.09;7395703;19;20025;-67
2022/07/05 06:02:53;;;;;;;2.10;1.30;;;;;;;16.61;61.10;101424.53;7393556;19;20373;-68
2022/07/05 06:05:21;;;;;;;5.70;1.33;;;;;;;16.69;60.69;101426.91;7394996;19;20015;-67
2022/07/05 06:07:52;;;;;;;5.47;1.45;;;;;;;16.73;60.40;101421.44;7395161;19;20027;-67
2022/07/05 06:10:23;;;;;;;1.85;1.00;;;;;;;16.87;59.77;101426.25;7395372;19;20074;-67
2022/07/05 06:12:53;;;;;;;2.42;1.25;;;;;;;16.97;59.32;101423.25;7394656;19;20010;-66
2022/07/05 06:15:24;;;;;;;2.40;0.90;;;;;;;17.06;58.39;101426.44;7397779;19;20431;-67
2022/07/05 06:17:52;;;;;;;2.30;1.00;;;;;;;17.14;58.04;101423.50;7395506;19;20082;-67
2022/07/05 06:20:23;;;;;;;4.30;1.30;;;;;;;17.23;57.66;101420.47;7398164;19;20019;-67
2022/07/05 06:22:53;;;;;;;2.03;1.23;;;;;;;17.32;57.84;101423.69;7398193;19;20502;-67
2022/07/05 06:25:22;;;;;;;4.10;1.25;;;;;;;17.41;57.43;101424.22;7397893;19;20078;-67
2022/07/05 06:27:53;;;;;;;3.13;1.00;;;;;;;17.50;57.26;101425.63;7396607;19;20014;-67
2022/07/05 06:30:26;;;;;;;3.72;1.50;;;;;;;17.60;56.52;101439.38;7398325;19;20078;-67
2022/07/05 06:32:55;;;;;;;3.42;0.80;;;;;;;17.69;56.54;101438.13;7395389;19;20380;-68
2022/07/05 06:35:24;;;;;;;1.88;1.08;;;;;;;17.77;56.37;101432.50;7396528;19;20023;-68
2022/07/05 06:37:54;;;;;;;1.73;0.88;;;;;;;17.86;55.96;101445.44;7394765;19;20088;-68
2022/07/05 06:40:24;;;;;;;4.20;1.13;;;;;;;17.92;55.89;101439.88;7397345;19;20112;-68
2022/07/05 06:42:53;;;;;;;3.25;0.85;;;;;;;18.00;55.61;101443.09;7398398;19;20022;-68
2022/07/05 06:45:25;;;;;;;1.35;0.80;;;;;;;18.11;55.08;101445.31;7398755;19;20018;-67
2022/07/05 06:47:58;;;;;;;2.03;1.17;;;;;;;18.22;54.78;101442.16;7396095;19;20081;-67
2022/07/05 06:50:27;;;;;;;2.42;1.23;;;;;;;18.34;54.19;101444.31;7395766;19;20014;-67
2022/07/05 06:52:55;;;;;;;1.77;0.85;;;;;;;18.46;53.73;101447.34;7397405;19;20018;-67
2022/07/05 06:55:24;;;;;;;1.15;0.77;;;;;;;18.57;53.68;101447.75;7395225;19;20387;-67
2022/07/05 06:58:00;;;;;;;1.70;0.90;;;;;;;18.67;53.33;101448.22;7395089;19;20086;-67
2022/07/05 07:00:32;;;;;;;2.42;0.82;;;;;;;18.74;52.85;101444.34;7394680;19;20074;-67
2022/07/05 07:03:00;;;;;;;1.33;0.75;;;;;;;18.80;52.93;101449.38;7398080;19;20039;-67
2022/07/05 07:05:30;;;;;;;1.52;0.80;;;;;;;18.81;52.96;101448.44;7394678;19;20023;-67
2022/07/05 07:10:39;;;;;;;1.60;0.80;;;;;;;18.92;52.68;101453.31;7397405;19;20002;-67
2022/07/05 07:13:08;;;;;;;1.55;0.90;;;;;;;19.00;52.26;101455.63;7396982;19;20039;-68
2022/07/05 07:15:40;;;;;;;3.13;1.10;;;;;;;19.08;52.44;101453.44;7395679;19;20018;-67
2022/07/05 07:18:09;;;;;;;3.75;1.58;;;;;;;19.18;51.80;101449.47;7393561;19;20090;-67
2022/07/05 07:20:37;;;;;;;1.58;0.90;;;;;;;19.32;52.04;101448.81;7395837;19;20022;-68
2022/07/05 07:23:06;;;;;;;2.35;0.70;;;;;;;19.43;51.42;101447.44;7394505;19;20027;-67
2022/07/05 07:25:34;;;;;;;2.42;1.23;;;;;;;19.50;51.24;101449.72;7396579;19;20019;-67
2022/07/05 07:28:03;;;;;;;2.70;1.08;;;;;;;19.54;51.08;101445.97;7394787;19;20074;-68
2022/07/05 07:30:31;;;;;;;1.77;0.90;;;;;;;19.57;51.21;101442.28;7394408;19;20145;-68
2022/07/05 07:33:02;;;;;;;6.00;1.20;;;;;;;19.62;50.96;101442.94;7396009;19;20014;-67
2022/07/05 07:35:31;;;;;;;4.20;1.20;;;;;;;19.65;50.71;101442.78;7395717;19;20098;-67
2022/07/05 07:37:59;;;;;;;2.15;1.20;;;;;;;19.68;51.00;101442.63;7393426;19;20027;-68
2022/07/05 07:40:28;;;;;;;1.20;0.85;;;;;;;19.77;50.41;101440.47;7394098;19;20022;-68
2022/07/05 07:42:56;;;;;;;3.28;1.00;;;;;;;19.88;50.58;101442.59;7394384;19;20018;-68
2022/07/05 07:45:26;;;;;;;6.38;1.17;;;;;;;19.97;50.10;101435.03;7393806;19;20022;-67
2022/07/05 07:47:55;;;;;;;6.20;2.40;;;;;;;20.14;50.02;101438.63;7395008;19;20095;-68
2022/07/05 07:50:26;;;;;;;2.03;0.93;;;;;;;20.30;49.47;101441.38;7394587;19;20028;-68
2022/07/05 07:52:54;;;;;;;2.60;1.40;;;;;;;20.47;49.77;101437.81;7394208;19;20359;-67
2022/07/05 07:55:23;;;;;;;3.10;1.55;;;;;;;20.63;49.56;101435.22;7395654;19;20077;-67
2022/07/05 07:57:51;;;;;;;3.88;1.05;;;;;;;20.76;49.03;101432.78;7393814;19;20082;-67
2022/07/05 08:00:20;;;;;;;3.05;0.93;;;;;;;20.88;48.15;101423.25;7394934;19;20077;-67
2022/07/05 08:02:49;;;;;;;5.28;0.98;;;;;;;20.98;48.36;101435.16;7394706;19;20026;-67
2022/07/05 08:05:17;;;;;;;2.47;1.08;;;;;;;21.04;47.41;101432.16;7393982;19;20067;-67
2022/07/05 08:07:48;;;;;;;1.65;0.95;;;;;;;21.11;47.99;101427.34;7392520;19;20035;-67
2022/07/05 08:10:17;;;;;;;3.45;0.95;;;;;;;21.18;47.58;101430.53;7395079;19;20022;-67
2022/07/05 08:12:45;;;;;;;7.47;2.58;;;;;;;21.23;47.02;101425.78;7393353;19;20155;-67
2022/07/05 08:15:14;;;;;;;2.28;1.00;;;;;;;21.31;47.17;101420.91;7393050;19;20074;-67
2022/07/05 08:21:30;;;;;;;3.25;0.70;;;;;;;21.36;46.62;101425.94;7392612;19;20454;-68
2022/07/05 08:23:14;;;;;;;4.43;1.10;;;;;;;21.38;46.90;101416.06;7394464;19;20477;-67
2022/07/05 08:25:43;;;;;;;3.88;1.13;;;;;;;21.36;47.10;101412.59;7391553;19;20031;-67
2022/07/05 08:28:11;;;;;;;3.65;1.05;;;;;;;21.37;46.77;101411.66;7393157;19;20031;-67
2022/07/05 08:30:40;;;;;;;4.05;1.15;;;;;;;21.40;47.26;101417.69;7393766;19;20019;-68
2022/07/05 08:33:09;;;;;;;1.52;0.88;;;;;;;21.45;46.81;101412.09;7394217;19;20015;-68
2022/07/05 08:35:37;;;;;;;2.03;0.80;;;;;;;21.48;46.81;101414.59;7393031;19;20023;-67
2022/07/05 08:38:06;;;;;;;4.40;1.30;;;;;;;21.49;46.99;101421.66;7392393;19;20010;-67
2022/07/05 08:40:40;;;;;;;1.98;0.90;;;;;;;21.51;46.62;101421.56;7392100;19;20039;-68
2022/07/05 08:43:09;;;;;;;2.00;0.90;;;;;;;21.51;46.51;101418.88;7393671;19;20025;-68
2022/07/05 08:45:37;;;;;;;3.30;1.05;;;;;;;21.54;46.35;101419.56;7392191;19;20019;-68
2022/07/05 08:48:08;;;;;;;5.30;1.08;;;;;;;21.52;46.48;101416.16;7392938;19;20090;-68
2022/07/05 08:50:37;;;;;;;3.35;1.10;;;;;;;21.49;46.69;101419.81;7393358;19;20019;-68
2022/07/05 08:53:07;;;;;;;2.75;1.33;;;;;;;21.49;46.56;101418.97;7392931;19;20022;-68
2022/07/05 08:55:38;;;;;;;2.25;1.00;;;;;;;21.50;46.46;101418.03;7393483;19;20382;-68
2022/07/05 08:58:07;;;;;;;3.00;1.10;;;;;;;21.51;46.52;101416.22;7392493;19;20027;-68
2022/07/05 09:00:36;;;;;;;2.97;1.05;;;;;;;21.50;46.86;101407.38;7393835;19;20020;-68
2022/07/05 09:03:06;;;;;;;4.47;1.08;;;;;;;21.54;46.35;101413.38;7391628;19;20018;-67
2022/07/05 09:05:41;;;;;;;3.65;1.20;;;;;;;21.56;46.51;101411.50;7392969;19;20015;-69
2022/07/05 09:08:12;;;;;;;3.47;1.00;;;;;;;21.54;46.36;101416.91;7392861;19;20036;-69
2022/07/05 09:10:45;;;;;;;2.45;1.13;;;;;;;21.53;46.05;101406.31;7394046;19;20032;-70
2022/07/05 09:13:14;;;;;;;1.83;1.10;;;;;;;21.54;46.22;101398.22;7391628;19;20018;-69
2022/07/05 09:15:42;;;;;;;4.55;1.70;;;;;;;21.60;45.96;101391.72;7391031;19;20384;-69
2022/07/05 09:18:12;;;;;;;2.33;1.20;;;;;;;21.64;45.45;101402.09;7390784;19;20015;-69
2022/07/05 09:20:40;;;;;;;2.70;1.02;;;;;;;21.71;45.55;101401.75;7393123;19;20482;-69
2022/07/05 09:23:13;;;;;;;2.45;1.17;;;;;;;21.86;45.55;101397.31;7391357;19;20022;-70
2022/07/05 09:25:45;;;;;;;3.15;1.48;;;;;;;21.96;44.87;101391.34;7390839;19;20468;-70
2022/07/05 09:28:13;;;;;;;2.92;1.70;;;;;;;22.06;43.80;101391.63;7390545;19;20500;-70
2022/07/05 09:30:43;;;;;;;3.05;1.77;;;;;;;22.15;43.28;101394.72;7390814;19;20036;-69
2022/07/05 09:33:14;;;;;;;3.42;1.30;;;;;;;22.22;43.51;101388.06;7390825;19;20028;-68
2022/07/05 09:35:44;;;;;;;4.32;1.52;;;;;;;22.31;42.87;101394.66;7392839;19;20018;-69
2022/07/05 09:38:21;;;;;;;2.00;1.23;;;;;;;22.42;43.03;101390.41;7394272;19;20036;-69
2022/07/05 09:40:54;;;;;;;3.08;1.20;;;;;;;22.55;42.41;101397.66;7399966;19;20017;-70
2022/07/05 09:43:30;;;;;;;3.17;1.50;;;;;;;22.68;42.24;101395.09;7397147;19;20371;-69
2022/07/05 09:46:00;;;;;;;1.33;1.02;;;;;;;22.71;42.22;101397.56;7400080;19;20031;-70
2022/07/05 09:48:30;;;;;;;2.58;1.13;;;;;;;22.66;41.69;101391.63;7397364;19;20018;-67
2022/07/05 09:51:09;;;;;;;4.43;1.40;;;;;;;22.66;41.06;101407.69;7399193;19;20027;-69
2022/07/05 09:53:48;;;;;;;3.15;1.35;;;;;;;22.64;41.72;101389.06;7400299;19;20023;-69
2022/07/05 09:56:19;;;;;;;1.70;1.35;;;;;;;22.71;41.36;101384.19;7399090;19;20014;-69
2022/07/05 09:58:48;;;;;;;1.70;1.00;;;;;;;22.84;41.54;101390.47;7396494;19;20459;-68
2022/07/05 10:01:26;;;;;;;2.22;1.23;;;;;;;22.97;40.63;101393.22;7399052;19;20011;-70
2022/07/05 10:03:56;;;;;;;1.80;1.23;;;;;;;23.08;40.99;101380.03;7397088;19;20021;-69
2022/07/05 10:06:25;;;;;;;3.38;1.13;;;;;;;23.12;40.39;101402.09;7396126;19;20021;-71
2022/07/05 10:09:01;;;;;;;4.55;1.35;;;;;;;23.17;40.26;101388.47;7398516;19;20049;-71
2022/07/05 10:11:33;;;;;;;2.00;1.00;;;;;;;23.13;40.35;101387.75;7397565;19;20019;-70
2022/07/05 10:14:10;;;;;;;2.00;0.80;;;;;;;23.07;39.57;101386.31;7398695;19;20014;-71
2022/07/05 10:16:39;;;;;;;2.50;0.82;;;;;;;23.09;40.30;101380.91;7398770;19;20022;-71
2022/07/05 10:19:11;;;;;;;3.78;1.17;;;;;;;23.09;38.99;101392.44;7396455;19;20197;-71
2022/07/05 10:21:41;;;;;;;5.28;3.00;;;;;;;23.07;39.58;101390.81;7397837;19;20027;-71
2022/07/05 10:24:10;;;;;;;1.98;1.10;;;;;;;23.05;39.27;101390.94;7398350;19;20019;-70
2022/07/05 10:26:42;;;;;;;4.20;1.33;;;;;;;23.08;38.05;101390.72;7396062;19;20014;-71
2022/07/05 10:29:12;;;;;;;3.45;1.13;;;;;;;23.10;38.36;101382.59;7397318;19;20482;-70
2022/07/05 10:31:41;;;;;;;4.93;1.40;;;;;;;23.19;38.49;101384.72;7396971;19;20018;-71
2022/07/05 10:34:10;;;;;;;2.90;1.30;;;;;;;23.30;37.87;101377.81;7395558;19;20010;-70
2022/07/05 10:36:42;;;;;;;1.35;1.10;;;;;;;23.42;37.96;101393.06;7394867;19;20039;-70
2022/07/05 10:39:12;;;;;;;3.83;1.30;;;;;;;23.52;38.12;101379.91;7395796;19;20022;-71
2022/07/05 10:41:46;;;;;;;4.97;1.13;;;;;;;23.59;37.68;101384.78;7396396;19;20038;-71
2022/07/05 10:44:28;;;;;;;3.83;1.70;;;;;;;23.66;37.93;101368.28;7398480;19;20014;-71
2022/07/05 10:47:11;;;;;;;2.75;1.00;;;;;;;23.77;37.27;101373.78;7397512;19;20421;-70
2022/07/05 10:49:40;;;;;;;3.83;1.42;;;;;;;23.90;37.26;101369.28;7397421;19;20104;-71
2022/07/05 10:52:24;;;;;;;3.63;1.27;;;;;;;24.03;36.40;101365.81;7397683;19;20516;-71
2022/07/05 10:55:21;;;;;;;3.70;1.40;;;;;;;24.11;36.29;101367.94;7396185;19;20010;-71
2022/07/05 10:58:19;;;;;;;2.40;1.27;;;;;;;24.04;36.03;101372.88;7396079;19;20015;-71
2022/07/05 11:01:16;;;;;;;1.92;1.30;;;;;;;23.90;36.32;101371.97;7397603;19;20019;-70
2022/07/05 11:03:47;;;;;;;2.40;1.48;;;;;;;23.84;36.29;101361.66;7397044;19;20014;-69
2022/07/05 11:06:22;;;;;;;3.22;1.27;;;;;;;23.91;35.11;101362.16;7394562;19;20010;-69
2022/07/05 11:09:18;;;;;;;3.28;1.27;;;;;;;23.92;34.68;101363.84;7396364;19;20023;-70
2022/07/05 11:11:48;;;;;;;4.50;1.55;;;;;;;23.90;35.24;101358.56;7394989;19;20022;-70
2022/07/05 11:14:32;;;;;;;3.95;1.35;;;;;;;23.93;34.34;101357.53;7396316;19;20043;-70
2022/07/05 11:17:29;;;;;;;1.30;1.20;;;;;;;24.03;34.58;101361.28;7393856;19;20022;-71
2022/07/05 11:20:14;;;;;;;2.08;1.23;;;;;;;24.17;35.22;101359.50;7393391;19;20182;-70
2022/07/05 11:22:44;;;;;;;3.38;1.52;;;;;;;24.26;34.78;101371.41;7395783;19;20074;-71
2022/07/05 11:25:14;;;;;;;4.60;1.50;;;;;;;24.35;35.08;101357.34;7395438;19;20035;-70
2022/07/05 11:28:12;;;;;;;1.88;1.38;;;;;;;24.40;34.23;101357.88;7394397;19;20445;-70
2022/07/05 11:30:52;;;;;;;3.38;1.35;;;;;;;24.49;34.70;101367.09;7395294;19;20022;-70
2022/07/05 11:33:48;;;;;;;2.60;1.20;;;;;;;24.58;34.34;101362.88;7396479;19;20027;-69
2022/07/05 11:36:27;;;;;;;3.63;1.35;;;;;;;24.68;33.72;101362.16;7393771;19;20014;-69
2022/07/05 11:39:12;;;;;;;2.67;1.45;;;;;;;24.77;34.08;101360.66;7392601;19;20395;-69
2022/07/05 11:41:41;;;;;;;2.95;1.27;;;;;;;24.91;34.11;101337.31;7395837;19;20017;-70
2022/07/05 11:44:10;;;;;;;3.65;1.15;;;;;;;25.08;33.74;101357.56;7395812;19;20010;-70
2022/07/05 11:46:39;;;;;;;3.88;1.02;;;;;;;25.26;33.97;101348.09;7395216;19;20022;-71